createdAt,value
2023-01-18T00:02:13.953Z,95843.66
2023-01-18T00:04:40.884Z,95837.72
2023-01-18T00:07:07.805Z,95830.75
2023-01-18T00:09:34.664Z,95816.88
2023-01-18T00:12:01.609Z,95812.75
2023-01-18T00:14:28.525Z,95806.41
2023-01-18T00:16:55.550Z,95809.06
2023-01-18T00:19:22.433Z,95811.88
2023-01-18T00:21:54.456Z,95812.31
2023-01-18T00:24:24.023Z,95812.75
2023-01-18T00:26:50.941Z,95822.13
2023-01-18T00:29:17.858Z,95810.25
2023-01-18T00:31:44.889Z,95812.50
2023-01-18T00:34:13.181Z,95820.47
2023-01-18T00:36:40.904Z,95811.41
2023-01-18T00:39:09.034Z,95797.13
2023-01-18T00:41:55.976Z,95810.78
2023-01-18T00:44:22.875Z,95801.56
2023-01-18T00:46:50.277Z,95802.41
2023-01-18T00:49:17.248Z,95801.19
2023-01-18T00:51:44.175Z,95792.81
2023-01-18T00:54:11.107Z,95799.19
2023-01-18T00:56:38.004Z,95803.47
2023-01-18T00:59:04.948Z,95802.47
2023-01-18T01:01:32.053Z,95794.88
2023-01-18T01:04:17.687Z,95790.41
2023-01-18T01:06:44.999Z,95791.44
2023-01-18T01:09:22.525Z,95778.94
2023-01-18T01:12:08.915Z,95785.25
2023-01-18T01:14:57.804Z,95790.19
2023-01-18T01:17:43.505Z,95769.97
2023-01-18T01:20:30.646Z,95783.47
2023-01-18T01:23:16.313Z,95768.50
2023-01-18T01:26:01.676Z,95780.00
2023-01-18T01:28:28.650Z,95778.78
2023-01-18T01:31:03.667Z,95785.56
2023-01-18T01:33:31.972Z,95783.53
2023-01-18T01:36:01.288Z,95780.88
2023-01-18T01:38:28.795Z,95779.47
2023-01-18T01:40:57.369Z,95773.53
2023-01-18T01:43:50.052Z,95766.63
2023-01-18T01:46:34.159Z,95770.69
2023-01-18T01:49:08.316Z,95763.31
2023-01-18T01:51:40.163Z,95761.25
2023-01-18T01:54:11.395Z,95755.16
2023-01-18T01:56:39.909Z,95751.28
2023-01-18T01:59:08.891Z,95746.34
2023-01-18T02:01:36.703Z,95739.41
2023-01-18T02:04:04.432Z,95738.81
2023-01-18T02:06:39.589Z,95742.09
2023-01-18T02:09:32.277Z,95747.38
2023-01-18T02:12:19.715Z,95750.28
2023-01-18T02:15:05.428Z,95756.38
2023-01-18T02:18:07.667Z,95742.47
2023-01-18T02:21:10.634Z,95740.59
2023-01-18T02:23:58.022Z,95736.28
2023-01-18T02:27:14.980Z,95735.25
2023-01-18T02:30:17.382Z,95727.09
2023-01-18T02:32:46.851Z,95724.00
2023-01-18T02:35:57.565Z,95730.13
2023-01-18T02:38:32.784Z,95729.50
2023-01-18T02:41:52.167Z,95723.16
2023-01-18T02:44:48.479Z,95712.56
2023-01-18T02:47:16.899Z,95708.91
2023-01-18T02:49:43.849Z,95715.88
2023-01-18T02:52:47.545Z,95721.13
2023-01-18T02:55:39.783Z,95717.47
2023-01-18T02:58:28.288Z,95735.25
2023-01-18T03:01:05.784Z,95733.25
2023-01-18T03:03:32.829Z,95736.53
2023-01-18T03:06:02.500Z,95734.69
2023-01-18T03:08:38.212Z,95742.06
2023-01-18T03:11:11.465Z,95741.41
2023-01-18T03:13:58.696Z,95747.94
2023-01-18T03:16:39.880Z,95736.28
2023-01-18T03:19:33.579Z,95740.78
2023-01-18T03:22:03.186Z,95745.28
2023-01-18T03:24:31.477Z,95741.59
2023-01-18T03:27:18.183Z,95742.22
2023-01-18T03:30:05.806Z,95742.81
2023-01-18T03:32:54.182Z,95745.88
2023-01-18T03:35:28.375Z,95734.41
2023-01-18T03:37:58.011Z,95730.28
2023-01-18T03:40:29.296Z,95719.84
2023-01-18T03:43:02.938Z,95697.81
2023-01-18T03:46:05.071Z,95701.75
2023-01-18T03:48:33.880Z,95696.69
2023-01-18T03:51:20.983Z,95677.28
2023-01-18T03:54:16.018Z,95664.78
2023-01-18T03:56:51.045Z,95654.97
2023-01-18T03:59:18.429Z,95653.19
2023-01-18T04:01:48.412Z,95629.66
2023-01-18T04:04:15.510Z,95578.84
2023-01-18T04:06:42.722Z,95610.22
2023-01-18T04:09:09.727Z,95601.09
2023-01-18T04:11:36.712Z,95604.53
2023-01-18T04:14:03.649Z,95621.28
2023-01-18T04:16:30.568Z,95652.63
2023-01-18T04:18:57.541Z,95658.72
2023-01-18T04:21:24.429Z,95663.03
2023-01-18T04:23:51.403Z,95655.88
2023-01-18T04:26:19.458Z,95653.25
2023-01-18T04:28:46.444Z,95639.97
2023-01-18T04:31:13.369Z,95652.44
2023-01-18T04:33:40.350Z,95660.38
2023-01-18T04:36:07.728Z,95639.53
2023-01-18T04:38:34.909Z,95639.53
2023-01-18T04:41:05.658Z,95642.38
2023-01-18T04:43:32.707Z,95660.38
2023-01-18T04:45:59.693Z,95649.31
2023-01-18T04:48:27.423Z,95641.72
2023-01-18T04:50:54.405Z,95647.63
2023-01-18T04:53:22.153Z,95616.81
2023-01-18T04:55:49.206Z,95606.97
2023-01-18T04:58:16.287Z,95617.78
2023-01-18T05:00:43.905Z,95640.03
2023-01-18T05:03:12.310Z,95638.28
2023-01-18T05:05:39.625Z,95635.84
2023-01-18T05:08:06.615Z,95632.38
2023-01-18T05:10:33.900Z,95620.09
2023-01-18T05:13:01.358Z,95611.91
2023-01-18T05:15:28.632Z,95617.19
2023-01-18T05:17:55.581Z,95623.13
2023-01-18T05:20:22.558Z,95632.50
2023-01-18T05:22:49.555Z,95633.69
2023-01-18T05:25:16.529Z,95640.22
2023-01-18T05:27:43.466Z,95658.66
2023-01-18T05:30:11.965Z,95662.13
2023-01-18T05:32:39.208Z,95671.75
2023-01-18T05:35:07.059Z,95679.31
2023-01-18T05:37:33.931Z,95684.81
2023-01-18T05:40:00.860Z,95680.53
2023-01-18T05:42:27.824Z,95683.56
2023-01-18T05:44:54.884Z,95689.91
2023-01-18T05:47:21.867Z,95679.47
2023-01-18T05:49:52.060Z,95682.31
2023-01-18T05:52:18.960Z,95685.97
2023-01-18T05:54:46.126Z,95685.13
2023-01-18T05:57:14.436Z,95663.50
2023-01-18T05:59:41.352Z,95676.09
2023-01-18T06:02:08.346Z,95672.41
2023-01-18T06:04:35.544Z,95668.72
2023-01-18T06:07:02.495Z,95662.00
2023-01-18T06:09:31.161Z,95657.31
2023-01-18T06:11:58.065Z,95656.50
2023-01-18T06:14:24.968Z,95655.06
2023-01-18T06:16:51.892Z,95650.19
2023-01-18T06:19:19.171Z,95659.16
2023-01-18T06:21:46.124Z,95670.00
2023-01-18T06:24:13.852Z,95669.16
2023-01-18T06:26:40.821Z,95672.22
2023-01-18T06:29:07.838Z,95674.06
2023-01-18T06:31:34.846Z,95671.84
2023-01-18T06:34:09.430Z,95676.91
2023-01-18T06:36:37.783Z,95678.75
2023-01-18T06:39:05.813Z,95669.56
2023-01-18T06:41:32.715Z,95674.13
2023-01-18T06:43:59.618Z,95663.31
2023-01-18T06:46:26.565Z,95672.13
2023-01-18T06:48:53.534Z,95670.66
2023-01-18T06:51:20.933Z,95675.53
2023-01-18T06:53:49.096Z,95672.06
2023-01-18T06:56:16.338Z,95672.88
2023-01-18T06:58:43.263Z,95679.63
2023-01-18T07:01:10.304Z,95684.53
2023-01-18T07:03:37.461Z,95679.81
2023-01-18T07:06:04.664Z,95681.00
2023-01-18T07:08:32.555Z,95693.06
2023-01-18T07:11:03.774Z,95694.50
2023-01-18T07:13:30.705Z,95696.88
2023-01-18T07:16:01.129Z,95696.25
2023-01-18T07:18:30.108Z,95697.44
2023-01-18T07:21:07.392Z,95706.63
2023-01-18T07:23:36.551Z,95704.13
2023-01-18T07:26:06.187Z,95670.06
2023-01-18T07:28:34.430Z,95700.84
2023-01-18T07:31:01.708Z,95709.41
2023-01-18T07:33:29.589Z,95713.50
2023-01-18T07:36:00.107Z,95712.84
2023-01-18T07:38:30.122Z,95716.72
2023-01-18T07:41:06.279Z,95705.22
2023-01-18T07:43:33.752Z,95693.38
2023-01-18T07:46:02.053Z,95690.81
2023-01-18T07:48:29.299Z,95690.63
2023-01-18T07:50:58.009Z,95693.44
2023-01-18T07:53:26.457Z,95701.00
2023-01-18T07:55:53.869Z,95683.03
2023-01-18T07:58:21.925Z,95693.59
2023-01-18T08:00:48.930Z,95689.91
2023-01-18T08:03:18.584Z,95699.53
2023-01-18T08:05:46.418Z,95701.16
2023-01-18T08:08:16.346Z,95706.25
2023-01-18T08:10:44.232Z,95695.53
2023-01-18T08:13:11.365Z,95715.50
2023-01-18T08:15:39.720Z,95724.06
2023-01-18T08:18:08.483Z,95713.56
2023-01-18T08:20:35.665Z,95709.06
2023-01-18T08:23:03.916Z,95694.97
2023-01-18T08:25:33.691Z,95688.34
2023-01-18T08:28:02.465Z,95685.72
2023-01-18T08:30:33.671Z,95690.22
2023-01-18T08:33:01.892Z,95700.84
2023-01-18T08:35:32.254Z,95715.22
2023-01-18T08:38:01.084Z,95718.31
2023-01-18T08:40:29.103Z,95716.47
2023-01-18T08:42:58.173Z,95718.94
2023-01-18T08:45:26.073Z,95724.44
2023-01-18T08:48:01.072Z,95753.25
2023-01-18T08:50:29.132Z,95744.97
2023-01-18T08:52:57.458Z,95750.13
2023-01-18T08:55:24.598Z,95754.16
2023-01-18T08:57:54.440Z,95762.09
2023-01-18T09:00:23.893Z,95762.50
2023-01-18T09:02:51.985Z,95757.31
2023-01-18T09:05:19.160Z,95747.28
2023-01-18T09:07:47.619Z,95743.19
2023-01-18T09:10:15.019Z,95756.47
2023-01-18T09:12:42.083Z,95763.41
2023-01-18T09:15:09.965Z,95757.06
2023-01-18T09:17:36.932Z,95754.97
2023-01-18T09:20:07.924Z,95739.66
2023-01-18T09:22:34.876Z,95740.03
2023-01-18T09:25:01.763Z,95719.97
2023-01-18T09:27:28.797Z,95754.75
2023-01-18T09:29:55.724Z,95767.38
2023-01-18T09:32:22.689Z,95770.16
2023-01-18T09:34:50.939Z,95765.00
2023-01-18T09:37:19.361Z,95760.88
2023-01-18T09:39:52.283Z,95770.69
2023-01-18T09:42:27.645Z,95761.03
2023-01-18T09:44:59.976Z,95769.41
2023-01-18T09:47:41.570Z,95758.31
2023-01-18T09:50:19.244Z,95766.91
2023-01-18T09:53:24.626Z,95772.81
2023-01-18T09:56:12.136Z,95793.94
2023-01-18T09:58:59.889Z,95797.22
2023-01-18T10:01:31.954Z,95800.28
2023-01-18T10:04:06.788Z,95804.78
2023-01-18T10:07:05.515Z,95812.75
2023-01-18T10:09:52.463Z,95829.56
2023-01-18T10:12:29.829Z,95828.78
2023-01-18T10:15:10.826Z,95843.47
2023-01-18T10:17:40.791Z,95851.38
2023-01-18T10:20:35.938Z,95858.78
2023-01-18T10:23:30.417Z,95854.03
2023-01-18T10:26:06.784Z,95856.59
2023-01-18T10:28:47.930Z,95862.59
2023-01-18T10:31:50.413Z,95862.84
2023-01-18T10:34:21.437Z,95860.81
2023-01-18T10:37:02.822Z,95871.03
2023-01-18T10:39:41.820Z,95880.09
2023-01-18T10:42:29.477Z,95873.19
2023-01-18T10:44:56.394Z,95876.50
2023-01-18T10:47:23.566Z,95876.50
2023-01-18T10:49:55.936Z,95884.69
2023-01-18T10:52:32.915Z,95890.25
2023-01-18T10:55:07.707Z,95892.09
2023-01-18T10:57:36.570Z,95893.75
2023-01-18T11:00:12.700Z,95914.63
2023-01-18T11:02:40.569Z,95909.25
2023-01-18T11:05:24.989Z,95909.25
2023-01-18T11:08:14.884Z,95899.84
2023-01-18T11:10:43.023Z,95896.97
2023-01-18T11:13:44.036Z,95905.16
2023-01-18T11:16:21.089Z,95901.44
2023-01-18T11:19:17.917Z,95916.59
2023-01-18T11:21:51.662Z,95910.81
2023-01-18T11:24:27.795Z,95908.78
2023-01-18T11:27:04.810Z,95927.16
2023-01-18T11:29:35.909Z,95932.28
2023-01-18T11:32:07.001Z,95923.69
2023-01-18T11:34:36.324Z,95929.41
2023-01-18T11:37:04.418Z,95936.63
2023-01-18T11:39:33.707Z,95944.25
2023-01-18T11:42:24.953Z,95936.25
2023-01-18T11:45:25.171Z,95939.53
2023-01-18T11:48:05.917Z,95910.13
2023-01-18T11:50:52.849Z,95910.94
2023-01-18T11:53:25.821Z,95952.25
2023-01-18T11:56:06.198Z,95958.00
2023-01-18T11:58:36.098Z,95968.44
2023-01-18T12:01:05.856Z,95964.78
2023-01-18T12:03:35.570Z,95972.53
2023-01-18T12:06:18.198Z,95978.28
2023-01-18T12:09:08.913Z,95984.19
2023-01-18T12:11:54.087Z,95976.66
2023-01-18T12:14:52.196Z,96003.44
2023-01-18T12:17:40.832Z,96014.53
2023-01-18T12:20:33.102Z,96023.59
2023-01-18T12:23:42.603Z,96027.88
2023-01-18T12:26:33.799Z,96030.38
2023-01-18T12:29:19.345Z,96046.16
2023-01-18T12:31:49.063Z,96050.44
2023-01-18T12:34:38.143Z,96059.69
2023-01-18T12:37:23.363Z,96052.72
2023-01-18T12:39:56.093Z,96055.19
2023-01-18T12:42:41.954Z,96062.75
2023-01-18T12:45:14.912Z,96060.91
2023-01-18T12:48:03.956Z,96075.69
2023-01-18T12:50:34.613Z,96079.56
2023-01-18T12:53:33.939Z,96103.13
2023-01-18T12:56:13.435Z,96103.53
2023-01-18T12:58:41.902Z,96114.19
2023-01-18T13:01:19.246Z,96113.75
2023-01-18T13:03:49.116Z,96128.94
2023-01-18T13:06:20.743Z,96136.53
2023-01-18T13:08:58.593Z,96135.50
2023-01-18T13:11:37.869Z,96141.22
2023-01-18T13:14:22.431Z,96146.97
2023-01-18T13:17:08.233Z,96151.88
2023-01-18T13:19:56.184Z,96166.84
2023-01-18T13:22:49.352Z,96170.53
2023-01-18T13:25:19.080Z,96175.66
2023-01-18T13:28:04.669Z,96177.91
2023-01-18T13:30:53.513Z,96178.31
2023-01-18T13:33:27.280Z,96188.56
2023-01-18T13:36:13.906Z,96193.69
2023-01-18T13:38:54.655Z,96203.50
2023-01-18T13:41:30.301Z,96210.47
2023-01-18T13:44:02.270Z,96211.28
2023-01-18T13:46:30.922Z,96218.03
2023-01-18T13:49:02.692Z,96229.53
2023-01-18T13:51:41.801Z,96222.34
2023-01-18T13:54:15.218Z,96231.81
2023-01-18T13:57:02.047Z,96231.59
2023-01-18T13:59:40.919Z,96237.72
2023-01-18T14:02:28.062Z,96245.34
2023-01-18T14:05:17.975Z,96245.94
2023-01-18T14:07:48.511Z,96253.94
2023-01-18T14:10:47.092Z,96268.69
2023-01-18T14:13:18.379Z,96275.25
2023-01-18T14:15:52.676Z,96275.03
2023-01-18T14:18:24.166Z,96293.09
2023-01-18T14:21:03.793Z,96300.88
2023-01-18T14:23:39.119Z,96296.34
2023-01-18T14:26:13.561Z,96302.91
2023-01-18T14:29:47.176Z,96316.69
2023-01-18T14:32:29.141Z,96317.09
2023-01-18T14:35:01.381Z,96314.63
2023-01-18T14:37:30.026Z,96319.34
2023-01-18T14:40:12.913Z,96314.63
2023-01-18T14:42:52.642Z,96319.13
2023-01-18T14:45:31.348Z,96324.06
2023-01-18T14:48:03.097Z,96339.22
2023-01-18T14:50:38.844Z,96338.84
2023-01-18T14:53:07.782Z,96339.22
2023-01-18T14:55:35.592Z,96357.69
2023-01-18T14:58:15.366Z,96372.69
2023-01-18T15:00:55.598Z,96364.25
2023-01-18T15:03:30.694Z,96372.47
2023-01-18T15:06:10.547Z,96389.91
2023-01-18T15:08:38.600Z,96390.53
2023-01-18T15:11:07.282Z,96397.91
2023-01-18T15:14:04.788Z,96400.78
2023-01-18T15:16:34.420Z,96388.91
2023-01-18T15:19:02.157Z,96409.00
2023-01-18T15:21:33.820Z,96404.91
2023-01-18T15:24:09.191Z,96430.13
2023-01-18T15:26:43.122Z,96438.53
2023-01-18T15:29:27.835Z,96434.66
2023-01-18T15:32:02.685Z,96435.25
2023-01-18T15:34:31.202Z,96438.34
2023-01-18T15:37:01.449Z,96440.63
2023-01-18T15:39:28.595Z,96457.44
2023-01-18T15:41:57.581Z,96444.72
2023-01-18T15:44:35.993Z,96462.56
2023-01-18T15:47:17.366Z,96457.03
2023-01-18T15:49:48.442Z,96446.75
2023-01-18T15:52:16.029Z,96473.66
2023-01-18T15:54:43.249Z,96436.72
2023-01-18T15:57:20.205Z,96476.75
2023-01-18T15:59:49.004Z,96485.16
2023-01-18T16:02:20.155Z,96491.31
2023-01-18T16:04:47.496Z,96484.75
2023-01-18T16:07:44.320Z,96484.75
2023-01-18T16:10:30.638Z,96483.72
2023-01-18T16:13:23.471Z,96480.03
2023-01-18T16:16:19.612Z,96473.44
2023-01-18T16:19:00.190Z,96475.53
2023-01-18T16:21:40.824Z,96477.97
2023-01-18T16:24:33.811Z,96489.88
2023-01-18T16:27:10.418Z,96510.41
2023-01-18T16:29:47.152Z,96502.63
2023-01-18T16:32:32.652Z,96537.31
2023-01-18T16:35:03.835Z,96543.47
2023-01-18T16:37:30.967Z,96549.22
2023-01-18T16:39:57.936Z,96558.88
2023-01-18T16:42:36.913Z,96560.91
2023-01-18T16:45:05.202Z,96564.41
2023-01-18T16:47:32.121Z,96565.66
2023-01-18T16:49:59.538Z,96571.59
2023-01-18T16:52:27.520Z,96566.66
2023-01-18T16:54:54.599Z,96581.66
2023-01-18T16:57:23.468Z,96593.13
2023-01-18T16:59:51.079Z,96603.19
2023-01-18T17:02:18.086Z,96616.75
2023-01-18T17:04:46.744Z,96636.06
2023-01-18T17:07:13.965Z,96640.34
2023-01-18T17:09:48.260Z,96634.81
2023-01-18T17:12:16.107Z,96624.75
2023-01-18T17:14:43.035Z,96643.44
2023-01-18T17:17:11.587Z,96655.75
2023-01-18T17:19:38.518Z,96662.75
2023-01-18T17:22:07.246Z,96659.66
2023-01-18T17:24:34.201Z,96663.34
2023-01-18T17:27:01.621Z,96667.66
2023-01-18T17:29:28.854Z,96665.41
2023-01-18T17:31:55.777Z,96661.09
2023-01-18T17:34:28.224Z,96662.34
2023-01-18T17:36:58.747Z,96663.16
2023-01-18T17:39:43.539Z,96657.00
2023-01-18T17:42:22.412Z,96658.47
2023-01-18T17:45:02.652Z,96659.88
2023-01-18T17:47:31.423Z,96672.59
2023-01-18T17:49:58.869Z,96670.97
2023-01-18T17:52:26.499Z,96680.00
2023-01-18T17:54:53.891Z,96683.69
2023-01-18T17:57:20.800Z,96685.13
2023-01-18T17:59:47.706Z,96695.56
2023-01-18T18:02:14.726Z,96703.56
2023-01-18T18:04:41.653Z,96714.66
2023-01-18T18:07:08.754Z,96721.59
2023-01-18T18:09:38.980Z,96719.09
2023-01-18T18:12:06.638Z,96723.41
2023-01-18T18:14:37.913Z,96708.19
2023-01-18T18:17:06.519Z,96703.84
2023-01-18T18:19:34.237Z,96715.94
2023-01-18T18:22:01.856Z,96705.44
2023-01-18T18:24:28.905Z,96711.56
2023-01-18T18:26:55.916Z,96711.38
2023-01-18T18:29:22.853Z,96692.34
2023-01-18T18:31:49.806Z,96710.66
2023-01-18T18:34:16.845Z,96730.78
2023-01-18T18:36:53.756Z,96745.97
2023-01-18T18:39:21.856Z,96749.06
2023-01-18T18:41:48.754Z,96744.38
2023-01-18T18:44:15.925Z,96749.47
2023-01-18T18:46:42.896Z,96749.47
2023-01-18T18:49:09.893Z,96754.19
2023-01-18T18:51:36.982Z,96755.41
2023-01-18T18:54:05.079Z,96752.31
2023-01-18T18:56:32.635Z,96751.03
2023-01-18T18:58:59.880Z,96744.84
2023-01-18T19:01:31.981Z,96741.88
2023-01-18T19:03:59.566Z,96738.59
2023-01-18T19:06:27.511Z,96764.78
2023-01-18T19:08:54.656Z,96776.22
2023-01-18T19:11:21.734Z,96798.50
2023-01-18T19:13:49.705Z,96803.03
2023-01-18T19:16:17.415Z,96809.72
2023-01-18T19:18:44.457Z,96803.38
2023-01-18T19:21:11.538Z,96803.38
2023-01-18T19:23:38.529Z,96812.59
2023-01-18T19:26:05.573Z,96808.44
2023-01-18T19:28:32.498Z,96817.00
2023-01-18T19:31:05.085Z,96824.19
2023-01-18T19:33:32.221Z,96820.25
2023-01-18T19:36:12.450Z,96818.63
2023-01-18T19:38:45.975Z,96827.63
2023-01-18T19:41:13.879Z,96829.63
2023-01-18T19:43:41.938Z,96832.28
2023-01-18T19:46:11.283Z,96816.81
2023-01-18T19:48:39.542Z,96840.66
2023-01-18T19:51:20.747Z,96837.34
2023-01-18T19:53:49.188Z,96844.06
2023-01-18T19:56:16.217Z,96847.13
2023-01-18T19:58:43.144Z,96842.97
2023-01-18T20:01:16.248Z,96841.91
2023-01-18T20:03:48.037Z,96850.91
2023-01-18T20:06:17.446Z,96856.63
2023-01-18T20:08:45.108Z,96858.44
2023-01-18T20:11:14.504Z,96849.81
2023-01-18T20:13:44.250Z,96851.03
2023-01-18T20:16:11.246Z,96853.84
2023-01-18T20:18:38.451Z,96855.69
2023-01-18T20:21:14.218Z,96857.53
2023-01-18T20:23:43.118Z,96871.66
2023-01-18T20:26:11.934Z,96857.34
2023-01-18T20:28:38.971Z,96884.69
2023-01-18T20:31:06.487Z,96883.06
2023-01-18T20:33:35.520Z,96895.56
2023-01-18T20:36:03.366Z,96898.38
2023-01-18T20:38:30.622Z,96893.25
2023-01-18T20:40:57.570Z,96889.75
2023-01-18T20:43:24.490Z,96887.47
2023-01-18T20:46:06.484Z,96883.16
2023-01-18T20:48:35.064Z,96873.88
2023-01-18T20:51:02.485Z,96883.25
2023-01-18T20:53:31.761Z,96894.28
2023-01-18T20:56:27.852Z,96907.13
2023-01-18T20:58:55.658Z,96889.03
2023-01-18T21:01:22.814Z,96892.06
2023-01-18T21:03:55.288Z,96894.91
2023-01-18T21:06:22.419Z,96898.75
2023-01-18T21:08:52.722Z,96894.81
2023-01-18T21:11:23.210Z,96895.72
2023-01-18T21:13:50.925Z,96896.19
2023-01-18T21:16:18.224Z,96885.44
2023-01-18T21:18:45.357Z,96887.84
2023-01-18T21:21:13.084Z,96897.34
2023-01-18T21:23:40.200Z,96912.66
2023-01-18T21:26:11.930Z,96912.19
2023-01-18T21:28:39.537Z,96900.63
2023-01-18T21:31:07.630Z,96916.22
2023-01-18T21:33:34.617Z,96927.84
2023-01-18T21:36:11.627Z,96923.91
2023-01-18T21:38:38.551Z,96933.25
2023-01-18T21:41:24.719Z,96934.44
2023-01-18T21:44:12.503Z,96931.78
2023-01-18T21:46:47.988Z,96942.22
2023-01-18T21:49:57.655Z,96950.03
2023-01-18T21:52:41.265Z,96963.97
2023-01-18T21:55:08.532Z,96961.78
2023-01-18T21:57:36.815Z,96973.06
2023-01-18T22:00:05.134Z,96981.88
2023-01-18T22:02:33.775Z,96991.84
2023-01-18T22:05:00.916Z,97010.13
2023-01-18T22:07:30.373Z,96986.44
2023-01-18T22:10:06.447Z,97012.41
2023-01-18T22:12:36.587Z,97017.72
2023-01-18T22:15:05.289Z,97019.41
2023-01-18T22:17:32.261Z,97018.56
2023-01-18T22:20:00.054Z,97014.25
2023-01-18T22:22:27.169Z,97017.72
2023-01-18T22:24:54.343Z,97021.06
2023-01-18T22:27:21.307Z,96995.22
2023-01-18T22:29:48.381Z,97028.00
2023-01-18T22:32:15.293Z,97009.47
2023-01-18T22:34:42.211Z,97031.69
2023-01-18T22:37:09.099Z,97028.06
2023-01-18T22:39:36.033Z,97027.25
2023-01-18T22:42:03.174Z,97033.38
2023-01-18T22:44:30.188Z,97033.09
2023-01-18T22:46:57.288Z,97043.25
2023-01-18T22:49:24.356Z,97049.41
2023-01-18T22:51:51.299Z,97066.72
2023-01-18T22:54:22.739Z,97072.19
2023-01-18T22:56:49.704Z,97064.16
2023-01-18T22:59:16.787Z,97071.06
2023-01-18T23:01:43.694Z,97075.25
2023-01-18T23:04:10.701Z,97074.47
2023-01-18T23:06:47.028Z,97053.81
2023-01-18T23:09:16.249Z,97063.44
2023-01-18T23:11:43.372Z,97067.44
2023-01-18T23:14:28.888Z,97068.53
2023-01-18T23:17:14.266Z,97065.38
2023-01-18T23:19:41.202Z,97050.34
2023-01-18T23:22:08.318Z,97071.38
2023-01-18T23:24:36.270Z,97074.03
2023-01-18T23:27:04.511Z,97070.69
2023-01-18T23:29:31.571Z,97068.38
2023-01-18T23:31:58.861Z,97071.19
2023-01-18T23:34:25.993Z,97071.06
2023-01-18T23:36:53.385Z,97072.06
2023-01-18T23:39:38.701Z,97069.06
2023-01-18T23:42:24.041Z,97073.38
2023-01-18T23:45:09.673Z,97079.72
2023-01-18T23:47:55.897Z,97079.34
2023-01-18T23:50:41.899Z,97072.22
2023-01-18T23:53:31.876Z,97079.69
2023-01-18T23:55:59.543Z,97087.94
2023-01-18T23:58:26.863Z,97081.47
